Time;durP1;ratioP1;P1;durP2;ratioP2;P2;SDS_P1;SDS_P2;PMS_P1;PMS_P2;Temp;Humidity;BMP_temperature;BMP_pressure;BME280_temperature;BME280_humidity;BME280_pressure;Samples;Min_cycle;Max_cycle;Signal;HPM_P1;HPM_P2
2023/09/15 00:01:04;;;;;;;6.30;2.60;;;;;;;;;;5058364;28;40546;-67
2023/09/15 00:03:33;;;;;;;6.47;2.58;;;;;;;;;;5069949;28;43175;-67
2023/09/15 00:06:01;;;;;;;4.72;2.63;;;;;;;;;;5069654;28;41009;-67
2023/09/15 00:08:29;;;;;;;4.65;2.60;;;;;;;;;;5069081;28;42643;-67
2023/09/15 00:10:57;;;;;;;4.55;1.95;;;;;;;;;;5069208;28;42183;-67
2023/09/15 00:13:27;;;;;;;4.90;2.22;;;;;;;;;;5068859;28;40272;-67
2023/09/15 00:15:55;;;;;;;5.28;2.03;;;;;;;;;;5070409;28;42222;-68
2023/09/15 00:18:25;;;;;;;6.25;2.45;;;;;;;;;;5070134;28;41988;-67
2023/09/15 00:20:53;;;;;;;6.63;2.85;;;;;;;;;;5070205;28;41319;-67
2023/09/15 00:23:21;;;;;;;3.38;2.25;;;;;;;;;;5069465;28;42750;-68
2023/09/15 00:25:52;;;;;;;5.47;2.20;;;;;;;;;;5068384;28;41536;-67
2023/09/15 00:28:20;;;;;;;5.68;2.20;;;;;;;;;;5067428;28;41383;-67
2023/09/15 00:30:50;;;;;;;2.92;2.15;;;;;;;;;;5067279;28;40569;-67
2023/09/15 00:33:19;;;;;;;5.70;2.10;;;;;;;;;;5068081;28;40202;-67
2023/09/15 00:35:47;;;;;;;5.65;2.00;;;;;;;;;;5065439;28;41965;-67
2023/09/15 00:38:15;;;;;;;2.90;2.30;;;;;;;;;;5067617;28;41749;-67
2023/09/15 00:40:43;;;;;;;4.25;2.58;;;;;;;;;;5068002;28;40519;-67
2023/09/15 00:43:11;;;;;;;2.95;2.03;;;;;;;;;;5069014;28;42560;-67
2023/09/15 00:45:39;;;;;;;3.85;2.22;;;;;;;;;;5061895;28;41356;-67
2023/09/15 00:48:09;;;;;;;3.28;1.85;;;;;;;;;;5063548;28;41729;-66
2023/09/15 00:50:37;;;;;;;3.78;2.08;;;;;;;;;;5067917;28;42522;-67
2023/09/15 00:53:05;;;;;;;4.22;2.10;;;;;;;;;;5067157;28;40767;-67
2023/09/15 00:55:34;;;;;;;3.38;2.15;;;;;;;;;;5058786;28;41663;-68
2023/09/15 00:58:03;;;;;;;4.57;2.17;;;;;;;;;;5067641;28;41834;-66
2023/09/15 01:00:31;;;;;;;4.07;2.10;;;;;;;;;;5067650;28;39917;-67
2023/09/15 01:02:59;;;;;;;2.35;1.92;;;;;;;;;;5053862;28;41739;-67
2023/09/15 01:05:29;;;;;;;4.20;2.58;;;;;;;;;;5067938;28;42065;-67
2023/09/15 01:07:57;;;;;;;2.50;2.10;;;;;;;;;;5063590;28;42393;-66
2023/09/15 01:10:25;;;;;;;3.05;1.65;;;;;;;;;;5064946;28;40630;-67
2023/09/15 01:12:54;;;;;;;3.15;2.05;;;;;;;;;;5065052;28;39975;-67
2023/09/15 01:15:22;;;;;;;3.45;2.25;;;;;;;;;;5066858;28;42383;-67
2023/09/15 01:17:52;;;;;;;3.55;2.20;;;;;;;;;;5067155;28;43929;-69
2023/09/15 01:20:21;;;;;;;3.88;2.20;;;;;;;;;;5065000;28;40556;-67
2023/09/15 01:23:07;;;;;;;3.57;2.13;;;;;;;;;;5029744;28;1063873;-67
2023/09/15 01:25:51;;;;;;;3.80;2.63;;;;;;;;;;5067278;28;40870;-67
2023/09/15 01:28:22;;;;;;;3.35;2.08;;;;;;;;;;5066093;28;39860;-67
2023/09/15 01:30:52;;;;;;;2.92;2.00;;;;;;;;;;5065504;28;42200;-67
2023/09/15 01:33:20;;;;;;;5.93;2.13;;;;;;;;;;5069085;28;41247;-67
2023/09/15 01:35:49;;;;;;;4.95;1.77;;;;;;;;;;5067294;28;40294;-68
2023/09/15 01:38:17;;;;;;;7.53;2.05;;;;;;;;;;5068214;28;43191;-67
2023/09/15 01:40:45;;;;;;;2.83;1.80;;;;;;;;;;5066970;28;38820;-67
2023/09/15 01:43:13;;;;;;;4.43;1.98;;;;;;;;;;5068935;28;42730;-67
2023/09/15 01:45:41;;;;;;;4.32;2.20;;;;;;;;;;5065017;28;41856;-66
2023/09/15 01:48:10;;;;;;;2.92;1.85;;;;;;;;;;5068433;28;41459;-68
2023/09/15 01:50:38;;;;;;;3.38;2.00;;;;;;;;;;5066677;28;40250;-66
2023/09/15 01:53:06;;;;;;;2.33;1.90;;;;;;;;;;5066180;28;39074;-67
2023/09/15 01:55:38;;;;;;;2.47;1.83;;;;;;;;;;5064837;28;42734;-67
2023/09/15 01:58:06;;;;;;;3.15;1.90;;;;;;;;;;5067095;28;41303;-66
2023/09/15 02:00:34;;;;;;;3.20;1.85;;;;;;;;;;5066349;28;38425;-67
2023/09/15 02:03:03;;;;;;;3.75;2.10;;;;;;;;;;5067643;28;42338;-66
2023/09/15 02:05:34;;;;;;;4.93;1.88;;;;;;;;;;5065715;28;41481;-67
2023/09/15 02:08:02;;;;;;;4.63;2.08;;;;;;;;;;5066066;28;41606;-67
2023/09/15 02:10:30;;;;;;;3.03;2.00;;;;;;;;;;5066894;28;40439;-67
2023/09/15 02:12:58;;;;;;;3.38;1.80;;;;;;;;;;5066937;28;34315;-67
2023/09/15 02:15:30;;;;;;;4.85;2.00;;;;;;;;;;5067795;28;42546;-67
2023/09/15 02:17:58;;;;;;;3.63;2.20;;;;;;;;;;5068294;28;41843;-67
2023/09/15 02:20:26;;;;;;;2.95;1.90;;;;;;;;;;5066202;28;40447;-67
2023/09/15 02:22:57;;;;;;;3.47;2.03;;;;;;;;;;5066004;28;40639;-67
2023/09/15 02:25:25;;;;;;;2.75;2.15;;;;;;;;;;5068264;28;42406;-67
2023/09/15 02:27:53;;;;;;;5.63;1.95;;;;;;;;;;5067300;28;40125;-66
2023/09/15 02:30:21;;;;;;;2.40;1.55;;;;;;;;;;5066446;28;42041;-67
2023/09/15 02:32:49;;;;;;;3.78;1.85;;;;;;;;;;5068170;28;42099;-67
2023/09/15 02:35:17;;;;;;;3.17;2.08;;;;;;;;;;5066566;28;40093;-67
2023/09/15 02:37:45;;;;;;;3.15;1.90;;;;;;;;;;5066802;28;41520;-67
2023/09/15 02:40:15;;;;;;;3.85;2.15;;;;;;;;;;5067006;28;40195;-67
2023/09/15 02:42:43;;;;;;;4.32;2.05;;;;;;;;;;5067930;28;42609;-67
2023/09/15 02:45:12;;;;;;;3.60;2.00;;;;;;;;;;5064528;28;40516;-67
2023/09/15 02:47:40;;;;;;;2.50;1.85;;;;;;;;;;5097912;28;39226;-67
2023/09/15 02:50:09;;;;;;;5.63;2.20;;;;;;;;;;5070297;28;40184;-67
2023/09/15 02:52:37;;;;;;;3.15;1.70;;;;;;;;;;5064430;28;40577;-67
2023/09/15 02:55:06;;;;;;;3.15;2.13;;;;;;;;;;5067296;28;41072;-67
2023/09/15 02:57:36;;;;;;;3.22;1.88;;;;;;;;;;5065377;28;43593;-68
2023/09/15 03:00:07;;;;;;;2.45;2.00;;;;;;;;;;5065411;28;39243;-67
2023/09/15 03:02:36;;;;;;;6.07;2.22;;;;;;;;;;5065503;28;40473;-68
2023/09/15 03:05:05;;;;;;;2.88;1.80;;;;;;;;;;5066081;28;42684;-68
2023/09/15 03:07:33;;;;;;;2.97;2.10;;;;;;;;;;5065546;28;41499;-67
2023/09/15 03:10:01;;;;;;;1.95;1.67;;;;;;;;;;5064272;28;41237;-67
2023/09/15 03:12:29;;;;;;;3.53;2.10;;;;;;;;;;5065124;28;42074;-67
2023/09/15 03:15:00;;;;;;;2.88;1.73;;;;;;;;;;5066090;28;39921;-68
2023/09/15 03:17:28;;;;;;;4.25;2.10;;;;;;;;;;5066857;28;41609;-67
2023/09/15 03:19:56;;;;;;;2.95;1.83;;;;;;;;;;5065448;28;39120;-67
2023/09/15 03:22:24;;;;;;;3.00;1.98;;;;;;;;;;5065038;28;42626;-67
2023/09/15 03:24:52;;;;;;;4.15;2.13;;;;;;;;;;5067162;28;41852;-67
2023/09/15 03:27:21;;;;;;;3.20;2.30;;;;;;;;;;5065695;28;38678;-68
2023/09/15 03:29:49;;;;;;;3.38;1.83;;;;;;;;;;5064849;28;41957;-67
2023/09/15 03:32:19;;;;;;;2.95;1.80;;;;;;;;;;5057173;28;43217;-67
2023/09/15 03:34:47;;;;;;;3.35;1.80;;;;;;;;;;5065667;28;39732;-67
2023/09/15 03:37:15;;;;;;;4.18;2.20;;;;;;;;;;5066494;28;42644;-67
2023/09/15 03:39:44;;;;;;;4.63;1.98;;;;;;;;;;5065823;28;41375;-67
2023/09/15 03:42:13;;;;;;;3.55;1.80;;;;;;;;;;5067526;28;41914;-67
2023/09/15 03:44:41;;;;;;;3.92;1.77;;;;;;;;;;5064732;28;41217;-67
2023/09/15 03:47:09;;;;;;;4.55;2.45;;;;;;;;;;5065824;28;40754;-68
2023/09/15 03:49:39;;;;;;;2.72;1.85;;;;;;;;;;5066996;28;42144;-66
2023/09/15 03:52:07;;;;;;;3.67;1.80;;;;;;;;;;5064716;28;41072;-67
2023/09/15 03:54:35;;;;;;;2.95;2.03;;;;;;;;;;5065577;28;39157;-67
2023/09/15 03:57:04;;;;;;;3.70;1.98;;;;;;;;;;5067592;28;42373;-67
2023/09/15 03:59:33;;;;;;;4.28;2.00;;;;;;;;;;5064539;28;40593;-67
2023/09/15 04:02:01;;;;;;;2.80;2.05;;;;;;;;;;5068044;28;41401;-67
2023/09/15 04:04:29;;;;;;;2.72;1.80;;;;;;;;;;5064870;28;40588;-67
2023/09/15 04:06:58;;;;;;;2.67;1.95;;;;;;;;;;5065869;28;39576;-67
2023/09/15 04:09:26;;;;;;;2.83;1.98;;;;;;;;;;5064094;28;40721;-67
2023/09/15 04:11:55;;;;;;;2.35;1.95;;;;;;;;;;5065268;28;40680;-67
2023/09/15 04:14:23;;;;;;;3.00;1.90;;;;;;;;;;5065527;28;39108;-68
2023/09/15 04:16:51;;;;;;;2.85;2.20;;;;;;;;;;5068088;28;41417;-67
2023/09/15 04:19:19;;;;;;;3.70;2.10;;;;;;;;;;5067231;28;41853;-67
2023/09/15 04:21:47;;;;;;;4.03;2.13;;;;;;;;;;5063539;28;38587;-68
2023/09/15 04:24:20;;;;;;;3.33;1.95;;;;;;;;;;5068882;28;40886;-67
2023/09/15 04:26:48;;;;;;;3.83;2.17;;;;;;;;;;5066550;28;39878;-67
2023/09/15 04:29:15;;;;;;;2.63;2.03;;;;;;;;;;5070396;28;41694;-68
2023/09/15 04:31:43;;;;;;;5.07;2.60;;;;;;;;;;5068821;28;39918;-67
2023/09/15 04:34:15;;;;;;;2.83;1.90;;;;;;;;;;5068014;28;39113;-67
2023/09/15 04:36:43;;;;;;;5.10;2.53;;;;;;;;;;5068659;28;39659;-67
2023/09/15 04:39:13;;;;;;;4.47;2.28;;;;;;;;;;5069087;28;40638;-67
2023/09/15 04:41:43;;;;;;;3.08;2.17;;;;;;;;;;5067924;28;41075;-67
2023/09/15 04:44:11;;;;;;;5.90;2.33;;;;;;;;;;5069264;28;40273;-67
2023/09/15 04:46:39;;;;;;;2.25;1.88;;;;;;;;;;5067524;28;41026;-68
2023/09/15 04:49:07;;;;;;;3.42;1.80;;;;;;;;;;5069622;28;42399;-68
2023/09/15 04:51:35;;;;;;;2.60;2.13;;;;;;;;;;5068229;28;40641;-68
2023/09/15 04:54:03;;;;;;;5.40;2.25;;;;;;;;;;5067924;28;40242;-68
2023/09/15 04:56:32;;;;;;;3.40;2.20;;;;;;;;;;5067646;28;40155;-68
2023/09/15 04:59:02;;;;;;;4.50;2.25;;;;;;;;;;5067353;28;40933;-68
2023/09/15 05:01:31;;;;;;;4.63;2.40;;;;;;;;;;5067735;28;39793;-68
2023/09/15 05:03:59;;;;;;;4.63;2.35;;;;;;;;;;5069856;28;42555;-67
2023/09/15 05:06:28;;;;;;;3.83;2.17;;;;;;;;;;5069593;28;42947;-68
2023/09/15 05:08:56;;;;;;;4.88;2.38;;;;;;;;;;5067844;28;40070;-68
2023/09/15 05:11:26;;;;;;;7.10;2.40;;;;;;;;;;5067854;28;42562;-68
2023/09/15 05:13:54;;;;;;;3.13;2.40;;;;;;;;;;5068484;28;39270;-67
2023/09/15 05:16:24;;;;;;;5.60;2.10;;;;;;;;;;5067082;28;41430;-67
2023/09/15 05:18:52;;;;;;;3.72;1.90;;;;;;;;;;5068002;28;42619;-67
2023/09/15 05:21:21;;;;;;;4.22;1.73;;;;;;;;;;5067943;28;39794;-67
2023/09/15 05:23:49;;;;;;;3.22;2.40;;;;;;;;;;5066983;28;39594;-67
2023/09/15 05:26:17;;;;;;;4.35;2.30;;;;;;;;;;5067290;28;41839;-67
2023/09/15 05:28:45;;;;;;;4.15;2.50;;;;;;;;;;5067067;28;39029;-68
2023/09/15 05:31:15;;;;;;;4.80;2.42;;;;;;;;;;5066871;28;40793;-67
2023/09/15 05:33:44;;;;;;;4.13;2.20;;;;;;;;;;5055537;28;39977;-68
2023/09/15 05:36:12;;;;;;;3.92;2.15;;;;;;;;;;5068206;28;42623;-68
2023/09/15 05:38:40;;;;;;;4.00;2.08;;;;;;;;;;5060958;28;40869;-68
2023/09/15 05:41:08;;;;;;;5.28;2.30;;;;;;;;;;5066554;28;39679;-67
2023/09/15 05:43:36;;;;;;;3.22;2.20;;;;;;;;;;5064857;28;42194;-67
2023/09/15 05:46:04;;;;;;;3.45;2.08;;;;;;;;;;5062620;28;42705;-68
2023/09/15 05:48:32;;;;;;;6.55;2.38;;;;;;;;;;5067998;28;41411;-68
2023/09/15 05:51:03;;;;;;;4.00;1.95;;;;;;;;;;5065359;28;41239;-67
2023/09/15 05:53:32;;;;;;;7.18;2.33;;;;;;;;;;5065300;28;40296;-67
2023/09/15 05:56:00;;;;;;;2.45;1.80;;;;;;;;;;5068553;28;42584;-68
2023/09/15 05:58:28;;;;;;;5.38;2.13;;;;;;;;;;5067274;28;43064;-67
2023/09/15 06:00:57;;;;;;;4.35;2.60;;;;;;;;;;5065309;28;40360;-67
2023/09/15 06:03:25;;;;;;;2.88;2.17;;;;;;;;;;5068182;28;41181;-68
2023/09/15 06:05:53;;;;;;;3.10;1.90;;;;;;;;;;5068020;28;41727;-67
2023/09/15 06:08:23;;;;;;;4.18;1.95;;;;;;;;;;5067061;28;39948;-67
2023/09/15 06:10:51;;;;;;;4.50;2.00;;;;;;;;;;5056263;28;41506;-67
2023/09/15 06:13:19;;;;;;;3.50;1.90;;;;;;;;;;5059111;28;43113;-67
2023/09/15 06:15:47;;;;;;;5.72;1.90;;;;;;;;;;5060346;28;41335;-67
2023/09/15 06:18:15;;;;;;;3.38;1.80;;;;;;;;;;5054804;28;42488;-68
2023/09/15 06:20:43;;;;;;;3.05;1.67;;;;;;;;;;5052414;28;40262;-67
2023/09/15 06:23:11;;;;;;;4.82;2.17;;;;;;;;;;5053509;28;42488;-67
2023/09/15 06:25:41;;;;;;;7.93;2.17;;;;;;;;;;5054921;28;43153;-68
2023/09/15 06:28:09;;;;;;;3.30;1.95;;;;;;;;;;5057647;28;40175;-67
2023/09/15 06:30:48;;;;;;;7.50;1.92;;;;;;;;;;5057877;28;41857;-68
2023/09/15 06:33:16;;;;;;;5.22;2.13;;;;;;;;;;5082534;28;41645;-68
2023/09/15 06:35:45;;;;;;;3.70;2.25;;;;;;;;;;5067290;28;42620;-68
2023/09/15 06:38:13;;;;;;;4.18;1.70;;;;;;;;;;5067419;28;41904;-67
2023/09/15 06:40:42;;;;;;;4.13;2.20;;;;;;;;;;5065940;28;41371;-68
2023/09/15 06:43:10;;;;;;;6.38;2.00;;;;;;;;;;5067712;28;41707;-67
2023/09/15 06:45:38;;;;;;;3.55;1.98;;;;;;;;;;5066720;28;42033;-67
2023/09/15 06:48:06;;;;;;;4.63;2.08;;;;;;;;;;5066760;28;39791;-68
2023/09/15 06:50:34;;;;;;;4.85;2.25;;;;;;;;;;5067498;28;42402;-68
2023/09/15 06:53:02;;;;;;;2.85;1.98;;;;;;;;;;5063058;28;42041;-68
2023/09/15 06:55:30;;;;;;;5.13;2.40;;;;;;;;;;5061053;28;40912;-68
2023/09/15 06:58:00;;;;;;;4.10;2.00;;;;;;;;;;5053562;28;42152;-68
2023/09/15 07:00:28;;;;;;;3.72;2.15;;;;;;;;;;5066492;28;39893;-68
2023/09/15 07:02:56;;;;;;;2.97;1.77;;;;;;;;;;5063516;28;41612;-67
2023/09/15 07:05:24;;;;;;;3.42;2.20;;;;;;;;;;5060655;28;41679;-68
2023/09/15 07:07:52;;;;;;;2.70;2.25;;;;;;;;;;5058194;28;40740;-68
2023/09/15 07:10:20;;;;;;;5.47;2.58;;;;;;;;;;5058882;28;42441;-68
2023/09/15 07:12:48;;;;;;;7.88;2.95;;;;;;;;;;5062520;28;42553;-68
2023/09/15 07:15:17;;;;;;;4.88;3.20;;;;;;;;;;5066277;28;41263;-68
2023/09/15 07:17:45;;;;;;;12.80;3.88;;;;;;;;;;5058399;28;41520;-69
2023/09/15 07:20:13;;;;;;;9.25;3.75;;;;;;;;;;5062424;28;41034;-68
2023/09/15 07:22:41;;;;;;;5.10;3.45;;;;;;;;;;5058403;28;41660;-68
2023/09/15 07:25:09;;;;;;;6.53;3.53;;;;;;;;;;5064477;28;44548;-68
2023/09/15 07:27:37;;;;;;;8.60;3.55;;;;;;;;;;5059142;28;39852;-69
2023/09/15 07:30:06;;;;;;;6.30;3.25;;;;;;;;;;5066803;28;41576;-70
2023/09/15 07:32:35;;;;;;;6.82;2.97;;;;;;;;;;5057681;28;41618;-69
2023/09/15 07:35:04;;;;;;;6.72;2.83;;;;;;;;;;5064104;28;41353;-69
2023/09/15 07:37:32;;;;;;;9.18;3.08;;;;;;;;;;5066033;28;41070;-69
2023/09/15 07:40:01;;;;;;;7.15;3.60;;;;;;;;;;5067408;28;42836;-69
2023/09/15 07:42:29;;;;;;;8.65;3.00;;;;;;;;;;5066648;28;42472;-68
2023/09/15 07:44:56;;;;;;;14.45;3.30;;;;;;;;;;5067174;28;41697;-68
2023/09/15 07:47:25;;;;;;;7.03;3.05;;;;;;;;;;5066539;28;41137;-69
2023/09/15 07:49:55;;;;;;;6.63;3.75;;;;;;;;;;5062467;28;41929;-69
2023/09/15 07:52:24;;;;;;;6.55;3.63;;;;;;;;;;5061723;28;42640;-69
2023/09/15 07:54:53;;;;;;;5.97;3.85;;;;;;;;;;5071569;28;40817;-69
2023/09/15 07:57:21;;;;;;;11.35;4.03;;;;;;;;;;5066962;28;41258;-68
2023/09/15 07:59:49;;;;;;;5.82;4.28;;;;;;;;;;5057276;28;42182;-68
2023/09/15 08:02:23;;;;;;;7.28;3.97;;;;;;;;;;5071183;28;41342;-68
2023/09/15 08:04:52;;;;;;;12.10;3.90;;;;;;;;;;5055498;28;42904;-69
2023/09/15 08:07:21;;;;;;;7.00;4.45;;;;;;;;;;5071069;28;41177;-68
2023/09/15 08:09:49;;;;;;;8.25;4.25;;;;;;;;;;5070939;28;41717;-67
2023/09/15 08:12:19;;;;;;;5.65;3.40;;;;;;;;;;5068534;28;42487;-68
2023/09/15 08:14:49;;;;;;;5.25;3.67;;;;;;;;;;5068974;28;40899;-69
2023/09/15 08:17:17;;;;;;;9.20;3.75;;;;;;;;;;5069182;28;41334;-69
2023/09/15 08:20:00;;;;;;;6.93;3.45;;;;;;;;;;5067368;28;41763;-68
2023/09/15 08:22:32;;;;;;;4.32;3.20;;;;;;;;;;5068185;28;40315;-68
2023/09/15 08:25:01;;;;;;;8.68;3.50;;;;;;;;;;5068021;28;41390;-69
2023/09/15 08:27:29;;;;;;;6.60;3.47;;;;;;;;;;5069018;28;39618;-69
2023/09/15 08:29:58;;;;;;;6.07;2.72;;;;;;;;;;5069667;28;41285;-69
2023/09/15 08:32:26;;;;;;;6.15;3.25;;;;;;;;;;5068879;28;43049;-69
2023/09/15 08:34:54;;;;;;;8.05;2.97;;;;;;;;;;5069791;28;41302;-69
2023/09/15 08:37:22;;;;;;;5.85;3.17;;;;;;;;;;5070621;28;41684;-69
2023/09/15 08:39:52;;;;;;;5.25;2.70;;;;;;;;;;5064038;28;42242;-69
2023/09/15 08:42:21;;;;;;;8.38;3.00;;;;;;;;;;5068735;28;40241;-69
2023/09/15 08:44:49;;;;;;;8.82;2.72;;;;;;;;;;5065525;28;41579;-69
2023/09/15 08:47:17;;;;;;;9.02;3.50;;;;;;;;;;5069706;28;41438;-68
2023/09/15 08:49:45;;;;;;;10.77;3.17;;;;;;;;;;5070621;28;42621;-69
2023/09/15 08:52:15;;;;;;;6.32;2.70;;;;;;;;;;5070589;28;41742;-68
2023/09/15 08:54:43;;;;;;;12.73;2.90;;;;;;;;;;5070145;28;40970;-69
2023/09/15 08:57:12;;;;;;;7.30;2.85;;;;;;;;;;5067395;28;41556;-68
2023/09/15 08:59:40;;;;;;;5.25;3.38;;;;;;;;;;5070023;28;42260;-68
2023/09/15 09:02:08;;;;;;;7.40;3.20;;;;;;;;;;5067092;28;40874;-68
2023/09/15 09:04:36;;;;;;;8.60;3.03;;;;;;;;;;5068519;28;42542;-68
2023/09/15 09:07:05;;;;;;;10.73;3.22;;;;;;;;;;5069102;28;41768;-69
2023/09/15 09:09:33;;;;;;;12.52;3.17;;;;;;;;;;5064107;28;42348;-68
2023/09/15 09:12:01;;;;;;;6.45;3.30;;;;;;;;;;5070354;28;42889;-68
2023/09/15 09:14:30;;;;;;;4.75;2.85;;;;;;;;;;5068719;28;40516;-68
2023/09/15 09:16:58;;;;;;;8.73;2.90;;;;;;;;;;5070365;28;42233;-70
2023/09/15 09:19:34;;;;;;;10.75;3.25;;;;;;;;;;5067464;28;40532;-69
2023/09/15 09:22:03;;;;;;;7.47;2.63;;;;;;;;;;5062650;28;41224;-68
2023/09/15 09:24:31;;;;;;;5.40;2.90;;;;;;;;;;5051378;28;41597;-68
2023/09/15 09:26:59;;;;;;;10.20;3.08;;;;;;;;;;5065514;28;42030;-69
2023/09/15 09:29:27;;;;;;;8.20;3.08;;;;;;;;;;5066438;28;40198;-69
2023/09/15 09:31:56;;;;;;;17.35;3.30;;;;;;;;;;5066925;28;43099;-69
2023/09/15 09:34:25;;;;;;;6.80;3.45;;;;;;;;;;5068172;28;41244;-68
2023/09/15 09:37:13;;;;;;;14.00;2.80;;;;;;;;;;5063137;28;42686;-70
2023/09/15 09:39:41;;;;;;;5.18;2.47;;;;;;;;;;5068349;28;41562;-68
2023/09/15 09:42:09;;;;;;;4.78;2.28;;;;;;;;;;5066546;28;40349;-70
2023/09/15 09:44:37;;;;;;;7.65;2.63;;;;;;;;;;5067101;28;41245;-69
2023/09/15 09:47:08;;;;;;;10.00;2.60;;;;;;;;;;5062569;28;42516;-69
2023/09/15 09:49:37;;;;;;;9.38;2.60;;;;;;;;;;5066380;28;41281;-71
2023/09/15 09:52:05;;;;;;;9.00;3.67;;;;;;;;;;5067895;28;41569;-71
2023/09/15 09:54:34;;;;;;;8.05;3.85;;;;;;;;;;5068575;28;38997;-71
2023/09/15 09:57:02;;;;;;;9.95;3.40;;;;;;;;;;5068654;28;41036;-71
2023/09/15 09:59:31;;;;;;;8.63;3.35;;;;;;;;;;5068516;28;42664;-71
2023/09/15 10:01:59;;;;;;;8.18;2.95;;;;;;;;;;5069114;28;40966;-71
2023/09/15 10:04:28;;;;;;;4.65;3.33;;;;;;;;;;5067398;28;41377;-72
2023/09/15 10:06:56;;;;;;;8.95;3.95;;;;;;;;;;5068970;28;42892;-69
2023/09/15 10:09:24;;;;;;;9.60;3.35;;;;;;;;;;5067356;28;41363;-69
2023/09/15 10:11:52;;;;;;;7.03;3.92;;;;;;;;;;5066971;28;41080;-70
2023/09/15 10:14:21;;;;;;;13.57;3.03;;;;;;;;;;5065781;28;41430;-69
2023/09/15 10:16:49;;;;;;;8.43;2.92;;;;;;;;;;5068750;28;41224;-69
2023/09/15 10:19:17;;;;;;;8.85;2.85;;;;;;;;;;5067396;28;43122;-69
2023/09/15 10:21:46;;;;;;;8.45;3.10;;;;;;;;;;5067745;28;42253;-69
2023/09/15 10:24:14;;;;;;;9.13;3.33;;;;;;;;;;5068158;28;41570;-69
2023/09/15 10:26:42;;;;;;;7.57;3.33;;;;;;;;;;5079190;28;41246;-68
2023/09/15 10:29:11;;;;;;;10.88;3.28;;;;;;;;;;5060663;28;40422;-69
2023/09/15 10:31:41;;;;;;;7.13;3.30;;;;;;;;;;5067321;28;41042;-69
2023/09/15 10:34:09;;;;;;;6.18;3.00;;;;;;;;;;5068271;28;43099;-69
2023/09/15 10:36:37;;;;;;;5.40;3.00;;;;;;;;;;5068130;28;40260;-69
2023/09/15 10:39:13;;;;;;;8.40;3.83;;;;;;;;;;5066150;28;40714;-69
2023/09/15 10:41:41;;;;;;;5.57;3.03;;;;;;;;;;5064532;28;41187;-69
2023/09/15 10:44:09;;;;;;;4.75;2.92;;;;;;;;;;5068212;28;42253;-70
2023/09/15 10:46:38;;;;;;;11.45;3.35;;;;;;;;;;5066234;28;41894;-69
2023/09/15 10:49:15;;;;;;;6.57;2.92;;;;;;;;;;5066727;28;40641;-70
2023/09/15 10:51:53;;;;;;;10.07;4.03;;;;;;;;;;5067778;28;41688;-69
2023/09/15 10:54:24;;;;;;;7.68;3.38;;;;;;;;;;5065909;28;43408;-69
2023/09/15 10:56:52;;;;;;;9.13;4.05;;;;;;;;;;5068605;28;41233;-69
2023/09/15 10:59:20;;;;;;;6.20;3.97;;;;;;;;;;5066941;28;41626;-69
2023/09/15 11:01:48;;;;;;;6.47;4.38;;;;;;;;;;5067622;28;40251;-70
2023/09/15 11:04:20;;;;;;;12.63;5.13;;;;;;;;;;5069048;28;41760;-68
2023/09/15 11:06:49;;;;;;;11.48;5.32;;;;;;;;;;5054409;28;42114;-72
2023/09/15 11:09:17;;;;;;;10.02;5.32;;;;;;;;;;5067338;28;40424;-71
2023/09/15 11:11:46;;;;;;;10.57;6.22;;;;;;;;;;5067409;28;41519;-71
2023/09/15 11:14:15;;;;;;;7.32;4.70;;;;;;;;;;5066830;28;41981;-72
2023/09/15 11:16:44;;;;;;;10.20;5.32;;;;;;;;;;5065850;28;39013;-70
2023/09/15 11:19:12;;;;;;;10.23;4.75;;;;;;;;;;5067926;28;41637;-69
2023/09/15 11:21:41;;;;;;;7.75;3.95;;;;;;;;;;5065656;28;40409;-69
2023/09/15 11:24:09;;;;;;;11.13;4.47;;;;;;;;;;5067387;28;42680;-71
2023/09/15 11:26:43;;;;;;;8.63;4.43;;;;;;;;;;5068624;28;41668;-68
2023/09/15 11:29:13;;;;;;;10.52;4.53;;;;;;;;;;5067051;28;40904;-69
2023/09/15 11:31:41;;;;;;;8.00;3.92;;;;;;;;;;5069783;28;41116;-69
2023/09/15 11:34:09;;;;;;;7.57;4.10;;;;;;;;;;5070862;28;42892;-69
2023/09/15 11:36:38;;;;;;;9.43;3.72;;;;;;;;;;5068512;28;40015;-70
2023/09/15 11:39:11;;;;;;;6.60;3.60;;;;;;;;;;5067222;28;42977;-70
2023/09/15 11:41:39;;;;;;;6.90;3.67;;;;;;;;;;5062310;28;41922;-69
2023/09/15 11:44:08;;;;;;;7.75;3.60;;;;;;;;;;5062945;28;41340;-70
2023/09/15 11:46:39;;;;;;;6.35;3.75;;;;;;;;;;5058934;28;42048;-70
2023/09/15 11:49:07;;;;;;;8.90;4.28;;;;;;;;;;5064313;28;40467;-70
2023/09/15 11:51:35;;;;;;;11.00;4.50;;;;;;;;;;5069617;28;41680;-70
2023/09/15 11:54:04;;;;;;;9.52;4.10;;;;;;;;;;5070483;28;43721;-72
2023/09/15 11:56:32;;;;;;;5.75;4.13;;;;;;;;;;5069354;28;40120;-69
2023/09/15 11:59:00;;;;;;;6.70;4.25;;;;;;;;;;5070585;28;41664;-70
2023/09/15 12:01:28;;;;;;;9.75;3.63;;;;;;;;;;5055897;28;43374;-69
2023/09/15 12:03:57;;;;;;;14.75;3.85;;;;;;;;;;5070054;28;41405;-69
2023/09/15 12:06:26;;;;;;;10.05;3.80;;;;;;;;;;5069164;28;42263;-69
2023/09/15 12:08:54;;;;;;;9.48;3.45;;;;;;;;;;5070526;28;40691;-70
2023/09/15 12:11:22;;;;;;;9.52;3.85;;;;;;;;;;5069240;28;41669;-69
2023/09/15 12:13:52;;;;;;;6.53;3.30;;;;;;;;;;5069891;28;43915;-69
2023/09/15 12:16:25;;;;;;;7.75;3.58;;;;;;;;;;5069649;28;40230;-69
2023/09/15 12:18:53;;;;;;;8.10;3.60;;;;;;;;;;5066848;28;42638;-69
2023/09/15 12:21:26;;;;;;;6.90;3.15;;;;;;;;;;5069517;28;42002;-70
2023/09/15 12:23:55;;;;;;;9.02;3.72;;;;;;;;;;5068078;28;41379;-71
2023/09/15 12:26:24;;;;;;;6.18;3.28;;;;;;;;;;5069790;28;41891;-69
2023/09/15 12:28:53;;;;;;;7.43;4.07;;;;;;;;;;5069336;28;42117;-68
2023/09/15 12:31:21;;;;;;;7.60;4.00;;;;;;;;;;5068852;28;42364;-68
2023/09/15 12:33:53;;;;;;;8.63;4.50;;;;;;;;;;5069922;28;42092;-69
2023/09/15 12:36:23;;;;;;;7.07;3.65;;;;;;;;;;5066700;28;41064;-69
2023/09/15 12:38:51;;;;;;;6.00;3.47;;;;;;;;;;5069008;28;41506;-70
2023/09/15 12:41:20;;;;;;;5.60;3.25;;;;;;;;;;5069820;28;42071;-69
2023/09/15 12:43:48;;;;;;;7.60;3.28;;;;;;;;;;5069213;28;41851;-70
2023/09/15 12:46:16;;;;;;;6.93;3.70;;;;;;;;;;5069296;28;41137;-69
2023/09/15 12:48:44;;;;;;;4.57;3.40;;;;;;;;;;5069536;28;33014;-69
2023/09/15 12:51:12;;;;;;;4.82;3.83;;;;;;;;;;5069506;28;42637;-69
2023/09/15 12:53:42;;;;;;;15.13;4.00;;;;;;;;;;5061641;28;41989;-71
2023/09/15 12:56:10;;;;;;;8.70;3.95;;;;;;;;;;5068332;28;41336;-70
2023/09/15 12:58:38;;;;;;;10.52;3.90;;;;;;;;;;5068830;28;41520;-70
2023/09/15 13:01:06;;;;;;;7.75;3.60;;;;;;;;;;5060292;28;42280;-72
2023/09/15 13:03:34;;;;;;;9.25;3.70;;;;;;;;;;5061340;28;39947;-71
2023/09/15 13:06:04;;;;;;;7.28;3.38;;;;;;;;;;5068739;28;42746;-71
2023/09/15 13:08:32;;;;;;;9.05;3.40;;;;;;;;;;5067078;28;41559;-72
2023/09/15 13:11:02;;;;;;;6.70;2.90;;;;;;;;;;5065796;28;41248;-71
2023/09/15 13:13:30;;;;;;;7.30;3.13;;;;;;;;;;5067214;28;42995;-71
2023/09/15 13:15:58;;;;;;;4.70;3.05;;;;;;;;;;5068618;28;39750;-71
2023/09/15 13:18:27;;;;;;;5.88;2.90;;;;;;;;;;5068509;28;41764;-71
2023/09/15 13:20:55;;;;;;;12.10;2.70;;;;;;;;;;5065167;28;41899;-71
2023/09/15 13:23:23;;;;;;;2.95;2.60;;;;;;;;;;5065713;28;40086;-72
2023/09/15 13:25:51;;;;;;;4.55;2.30;;;;;;;;;;5066773;28;41204;-72
2023/09/15 13:28:20;;;;;;;5.05;2.40;;;;;;;;;;5056862;28;42808;-71
2023/09/15 13:30:48;;;;;;;3.97;2.75;;;;;;;;;;5066342;28;39812;-72
2023/09/15 13:33:16;;;;;;;7.85;2.78;;;;;;;;;;5065890;28;41144;-71
2023/09/15 13:35:44;;;;;;;5.80;2.75;;;;;;;;;;5066521;28;40356;-71
2023/09/15 13:38:12;;;;;;;4.35;2.42;;;;;;;;;;5068724;28;41739;-71
2023/09/15 13:40:40;;;;;;;6.95;2.70;;;;;;;;;;5067481;28;41959;-71
2023/09/15 13:43:08;;;;;;;7.10;3.25;;;;;;;;;;5067620;28;41786;-71
2023/09/15 13:45:38;;;;;;;4.20;2.72;;;;;;;;;;5068089;28;41771;-71
2023/09/15 13:48:06;;;;;;;2.97;2.13;;;;;;;;;;5068345;28;43147;-71
2023/09/15 13:50:35;;;;;;;4.00;2.92;;;;;;;;;;5065703;28;40932;-71
2023/09/15 13:53:03;;;;;;;4.03;2.22;;;;;;;;;;5068096;28;41246;-71
2023/09/15 13:55:30;;;;;;;4.45;2.85;;;;;;;;;;5067172;28;40540;-71
2023/09/15 13:58:15;;;;;;;4.68;2.83;;;;;;;;;;5067850;28;41814;-71
2023/09/15 14:00:55;;;;;;;4.78;2.60;;;;;;;;;;5067684;28;43132;-71
2023/09/15 14:03:23;;;;;;;4.22;2.50;;;;;;;;;;5064142;28;41427;-73
2023/09/15 14:05:52;;;;;;;3.63;2.60;;;;;;;;;;5066562;28;39976;-71
2023/09/15 14:08:20;;;;;;;4.03;2.78;;;;;;;;;;5067589;28;42888;-72
2023/09/15 14:10:48;;;;;;;4.93;3.05;;;;;;;;;;5066945;28;40246;-71
2023/09/15 14:13:16;;;;;;;3.88;2.50;;;;;;;;;;5053133;28;41208;-72
2023/09/15 14:15:45;;;;;;;3.78;2.42;;;;;;;;;;5067759;28;42696;-71
2023/09/15 14:18:17;;;;;;;5.68;2.80;;;;;;;;;;5063388;28;42641;-71
2023/09/15 14:20:47;;;;;;;5.45;2.92;;;;;;;;;;5067487;28;42258;-71
2023/09/15 14:23:15;;;;;;;5.78;3.08;;;;;;;;;;5066799;28;40250;-71
2023/09/15 14:25:43;;;;;;;3.40;2.83;;;;;;;;;;5067260;28;42649;-71
2023/09/15 14:28:11;;;;;;;3.88;3.00;;;;;;;;;;5067235;28;42789;-71
2023/09/15 14:30:39;;;;;;;4.40;2.92;;;;;;;;;;5066691;28;40326;-72
2023/09/15 14:33:09;;;;;;;4.22;2.83;;;;;;;;;;5067214;28;41753;-71
2023/09/15 14:35:37;;;;;;;5.07;3.35;;;;;;;;;;5067214;28;42436;-71
2023/09/15 14:38:05;;;;;;;4.88;2.72;;;;;;;;;;5067055;28;41053;-72
2023/09/15 14:40:33;;;;;;;5.53;3.40;;;;;;;;;;5067119;28;42750;-71
2023/09/15 14:43:01;;;;;;;4.47;2.88;;;;;;;;;;5067252;28;40611;-71
2023/09/15 14:45:29;;;;;;;6.90;3.08;;;;;;;;;;5066218;28;41151;-71
2023/09/15 14:48:02;;;;;;;3.97;2.38;;;;;;;;;;5067061;28;42711;-71
2023/09/15 14:50:33;;;;;;;6.03;3.28;;;;;;;;;;5064030;28;41198;-71